createdAt,value
2023-03-11T00:02:13.984Z,3.40
2023-03-11T00:04:43.603Z,3.40
2023-03-11T00:07:12.105Z,3.90
2023-03-11T00:09:43.335Z,3.60
2023-03-11T00:12:13.547Z,4.00
2023-03-11T00:17:35.452Z,5.00
2023-03-11T00:20:06.729Z,5.20
2023-03-11T00:22:35.778Z,5.00
2023-03-11T00:25:08.918Z,5.30
2023-03-11T00:27:36.687Z,6.60
2023-03-11T00:30:06.752Z,7.60
2023-03-11T00:32:41.112Z,7.40
2023-03-11T00:35:33.108Z,9.30
2023-03-11T00:38:08.125Z,10.10
2023-03-11T00:40:35.960Z,10.60
2023-03-11T00:43:07.494Z,11.20
2023-03-11T00:45:39.579Z,11.00
2023-03-11T00:48:15.336Z,10.00
2023-03-11T00:50:43.797Z,10.20
2023-03-11T00:53:17.381Z,10.50
2023-03-11T00:55:47.175Z,11.10
2023-03-11T00:58:16.283Z,12.40
2023-03-11T01:01:17.274Z,11.60
2023-03-11T01:03:46.752Z,11.20
2023-03-11T01:06:15.873Z,12.60
2023-03-11T01:08:48.972Z,11.90
2023-03-11T01:11:18.026Z,12.40
2023-03-11T01:13:54.162Z,12.50
2023-03-11T01:16:25.191Z,12.10
2023-03-11T01:18:56.401Z,11.90
2023-03-11T01:23:59.292Z,10.10
2023-03-11T01:26:29.526Z,10.40
2023-03-11T01:29:08.878Z,10.30
2023-03-11T01:31:41.039Z,11.00
2023-03-11T01:34:08.542Z,12.50
2023-03-11T01:36:42.776Z,11.20
2023-03-11T01:39:15.376Z,12.70
2023-03-11T01:41:43.665Z,12.30
2023-03-11T01:44:12.510Z,12.60
2023-03-11T01:46:54.350Z,12.70
2023-03-11T01:49:27.201Z,12.40
2023-03-11T01:52:01.855Z,11.40
2023-03-11T01:54:37.406Z,5.70
2023-03-11T01:57:08.817Z,5.70
2023-03-11T01:59:44.271Z,4.90
2023-03-11T02:02:24.883Z,4.90
2023-03-11T02:04:54.482Z,4.40
2023-03-11T02:07:23.485Z,4.80
2023-03-11T02:10:01.157Z,5.00
2023-03-11T02:12:33.670Z,4.60
2023-03-11T02:15:01.830Z,4.20
2023-03-11T02:17:40.867Z,4.10
2023-03-11T02:20:29.368Z,4.30
2023-03-11T02:23:06.990Z,2.70
2023-03-11T02:26:00.149Z,2.90
2023-03-11T02:28:28.771Z,3.40
2023-03-11T02:30:57.755Z,6.30
2023-03-11T02:33:41.680Z,8.00
2023-03-11T02:36:41.331Z,9.00
2023-03-11T02:39:16.747Z,8.20
2023-03-11T02:44:29.380Z,9.60
2023-03-11T02:47:00.569Z,8.50
2023-03-11T02:49:31.976Z,7.40
2023-03-11T02:52:02.282Z,7.10
2023-03-11T02:54:32.510Z,5.00
2023-03-11T02:57:05.186Z,7.20
2023-03-11T02:59:34.245Z,4.10
2023-03-11T03:02:02.109Z,2.20
2023-03-11T03:04:29.885Z,2.20
2023-03-11T03:07:00.711Z,2.10
2023-03-11T03:09:31.743Z,3.30
2023-03-11T03:11:59.983Z,2.90
2023-03-11T03:14:51.887Z,2.90
2023-03-11T03:17:19.764Z,7.80
2023-03-11T03:19:49.942Z,7.90
2023-03-11T03:22:38.855Z,3.30
2023-03-11T03:25:18.941Z,1.80
2023-03-11T03:27:50.720Z,2.60
2023-03-11T03:30:20.662Z,2.50
2023-03-11T03:32:50.175Z,3.00
2023-03-11T03:35:18.555Z,3.60
2023-03-11T03:38:25.677Z,3.20
2023-03-11T03:40:57.044Z,2.40
2023-03-11T03:43:26.604Z,3.00
2023-03-11T03:46:04.719Z,3.40
2023-03-11T03:48:41.018Z,3.20
2023-03-11T03:53:50.892Z,2.00
2023-03-11T03:56:22.293Z,2.10
2023-03-11T03:58:50.722Z,1.70
2023-03-11T04:04:06.051Z,2.40
2023-03-11T04:06:37.077Z,2.40
2023-03-11T04:09:20.984Z,2.40
2023-03-11T04:12:13.832Z,2.20
2023-03-11T04:14:50.279Z,6.70
2023-03-11T04:17:32.299Z,8.00
2023-03-11T04:20:01.905Z,8.10
2023-03-11T04:22:29.771Z,8.90
2023-03-11T04:25:01.120Z,8.70
2023-03-11T04:27:28.953Z,7.30
2023-03-11T04:29:58.113Z,5.10
2023-03-11T04:32:38.049Z,3.90
2023-03-11T04:35:08.754Z,5.70
2023-03-11T04:37:35.939Z,6.60
2023-03-11T04:40:05.358Z,7.70
2023-03-11T04:42:37.380Z,7.40
2023-03-11T04:45:08.061Z,8.60
2023-03-11T04:47:37.456Z,9.70
2023-03-11T04:50:06.767Z,9.60
2023-03-11T04:52:34.704Z,9.30
2023-03-11T04:55:05.590Z,8.10
2023-03-11T04:57:36.495Z,7.90
2023-03-11T05:00:09.975Z,8.80
2023-03-11T05:02:42.250Z,7.10
2023-03-11T05:05:10.736Z,6.40
2023-03-11T05:07:39.916Z,5.20
2023-03-11T05:10:09.764Z,4.80
2023-03-11T05:12:37.327Z,5.10
2023-03-11T05:15:04.782Z,5.20
2023-03-11T05:17:31.807Z,4.10
2023-03-11T05:19:58.788Z,4.00
2023-03-11T05:22:47.514Z,4.80
2023-03-11T05:25:14.626Z,4.80
2023-03-11T05:27:43.036Z,4.50
2023-03-11T05:30:11.162Z,4.70
2023-03-11T05:32:39.138Z,4.90
2023-03-11T05:35:07.801Z,4.80
2023-03-11T05:37:53.065Z,4.80
2023-03-11T05:40:20.944Z,3.20
2023-03-11T05:42:47.932Z,2.50
2023-03-11T05:45:15.605Z,2.10
2023-03-11T05:47:43.851Z,5.40
2023-03-11T05:50:13.708Z,3.70
2023-03-11T05:52:40.914Z,4.00
2023-03-11T05:55:18.999Z,3.40
2023-03-11T05:57:46.207Z,2.80
2023-03-11T06:00:14.019Z,3.30
2023-03-11T06:02:41.840Z,3.70
2023-03-11T06:05:21.839Z,2.40
2023-03-11T06:07:49.525Z,1.80
2023-03-11T06:10:20.326Z,1.90
2023-03-11T06:12:47.440Z,1.60
2023-03-11T06:15:24.998Z,1.70
2023-03-11T06:17:52.967Z,1.80
2023-03-11T06:20:20.321Z,1.60
2023-03-11T06:22:52.549Z,2.00
2023-03-11T06:25:24.045Z,1.90
2023-03-11T06:27:53.408Z,1.80
2023-03-11T06:30:23.642Z,1.80
2023-03-11T06:33:05.343Z,1.30
2023-03-11T06:35:32.947Z,2.90
2023-03-11T06:38:00.960Z,10.10
2023-03-11T06:40:28.789Z,4.90
2023-03-11T06:42:56.078Z,2.80
2023-03-11T06:45:25.072Z,2.10
2023-03-11T06:47:56.547Z,1.80
2023-03-11T06:50:28.153Z,1.50
2023-03-11T06:52:56.747Z,1.50
2023-03-11T06:55:23.766Z,1.50
2023-03-11T06:57:51.552Z,1.80
2023-03-11T07:00:19.151Z,1.80
2023-03-11T07:02:51.209Z,2.10
2023-03-11T07:05:18.812Z,2.10
2023-03-11T07:07:48.832Z,1.90
2023-03-11T07:10:16.739Z,2.30
2023-03-11T07:12:43.745Z,2.40
2023-03-11T07:15:29.286Z,1.90
2023-03-11T07:17:56.362Z,2.20
2023-03-11T07:20:23.252Z,2.00
2023-03-11T07:22:54.513Z,1.50
2023-03-11T07:25:21.472Z,1.70
2023-03-11T07:27:58.599Z,1.70
2023-03-11T07:30:27.739Z,1.90
2023-03-11T07:32:54.630Z,1.80
2023-03-11T07:35:21.645Z,1.90
2023-03-11T07:37:49.762Z,1.80
2023-03-11T07:40:17.107Z,2.00
2023-03-11T07:42:43.921Z,2.80
2023-03-11T07:45:11.067Z,2.60
2023-03-11T07:47:38.529Z,2.60
2023-03-11T07:50:05.752Z,2.80
2023-03-11T07:52:33.725Z,3.00
2023-03-11T07:55:01.322Z,3.40
2023-03-11T07:57:28.244Z,3.60
2023-03-11T07:59:55.213Z,3.50
2023-03-11T08:02:24.065Z,3.70
2023-03-11T08:04:58.701Z,3.70
2023-03-11T08:07:32.013Z,4.80
2023-03-11T08:09:59.340Z,3.00
2023-03-11T08:12:26.339Z,3.90
2023-03-11T08:14:53.414Z,3.90
2023-03-11T08:17:20.302Z,4.00
2023-03-11T08:20:01.610Z,3.10
2023-03-11T08:22:28.992Z,2.50
2023-03-11T08:24:56.117Z,2.30
2023-03-11T08:27:32.703Z,1.90
2023-03-11T08:29:59.870Z,2.20
2023-03-11T08:32:30.565Z,1.80
2023-03-11T08:35:04.289Z,1.60
2023-03-11T08:37:31.920Z,1.90
2023-03-11T08:40:01.310Z,1.60
2023-03-11T08:42:28.214Z,1.40
2023-03-11T08:44:55.082Z,1.30
2023-03-11T08:47:22.702Z,1.40
2023-03-11T08:49:59.214Z,1.50
2023-03-11T08:52:26.856Z,1.50
2023-03-11T08:54:53.860Z,1.30
2023-03-11T08:57:22.050Z,1.10
2023-03-11T08:59:48.978Z,1.00
2023-03-11T09:02:16.118Z,1.10
2023-03-11T09:04:43.010Z,1.20
2023-03-11T09:07:12.322Z,1.40
2023-03-11T09:09:40.739Z,0.80
2023-03-11T09:12:13.604Z,1.30
2023-03-11T09:14:41.471Z,1.40
2023-03-11T09:17:11.451Z,0.90
2023-03-11T09:19:38.661Z,1.30
2023-03-11T09:22:06.131Z,1.20
2023-03-11T09:24:34.428Z,0.70
2023-03-11T09:27:02.041Z,0.80
2023-03-11T09:29:29.106Z,1.10
2023-03-11T09:31:56.318Z,1.00
2023-03-11T09:34:25.830Z,1.00
2023-03-11T09:36:52.686Z,0.80
2023-03-11T09:39:19.713Z,1.00
2023-03-11T09:41:58.451Z,0.70
2023-03-11T09:45:01.721Z,0.70
2023-03-11T09:47:37.838Z,0.90
2023-03-11T09:50:07.904Z,0.80
2023-03-11T09:52:46.581Z,1.60
2023-03-11T09:55:38.132Z,0.80
2023-03-11T09:58:42.540Z,0.70
2023-03-11T10:01:34.599Z,0.90
2023-03-11T10:04:10.711Z,1.00
2023-03-11T10:06:43.552Z,1.30
2023-03-11T10:09:53.333Z,0.90
2023-03-11T10:12:44.678Z,0.60
2023-03-11T10:15:18.792Z,0.80
2023-03-11T10:18:24.276Z,1.00
2023-03-11T10:21:00.296Z,1.00
2023-03-11T10:23:39.398Z,0.70
2023-03-11T10:26:18.315Z,0.60
2023-03-11T10:31:22.888Z,1.00
2023-03-11T10:37:33.199Z,0.90
2023-03-11T10:40:29.397Z,1.00
2023-03-11T10:43:01.569Z,0.70
2023-03-11T10:45:36.401Z,0.60
2023-03-11T10:48:20.660Z,0.40
2023-03-11T10:50:56.615Z,0.80
2023-03-11T10:53:25.815Z,0.60
2023-03-11T10:56:01.278Z,0.90
2023-03-11T10:58:54.432Z,0.90
2023-03-11T11:01:48.090Z,0.90
2023-03-11T11:04:29.608Z,0.60
2023-03-11T11:07:00.438Z,0.80
2023-03-11T11:09:32.404Z,0.80
2023-03-11T11:12:22.339Z,0.50
2023-03-11T11:14:54.857Z,0.70
2023-03-11T11:17:33.666Z,1.00
2023-03-11T11:20:15.854Z,0.90
2023-03-11T11:22:53.139Z,1.30
2023-03-11T11:25:45.079Z,0.60
2023-03-11T11:28:18.185Z,1.00
2023-03-11T11:31:08.235Z,1.60
2023-03-11T11:34:04.767Z,1.00
2023-03-11T11:39:28.205Z,0.70
2023-03-11T11:41:56.266Z,0.60
2023-03-11T11:44:33.285Z,0.70
2023-03-11T11:47:13.534Z,0.40
2023-03-11T11:50:15.763Z,0.90
2023-03-11T11:52:49.326Z,0.40
2023-03-11T11:55:27.054Z,1.00
2023-03-11T11:57:53.932Z,0.50
2023-03-11T12:00:52.537Z,0.80
2023-03-11T12:06:12.722Z,0.90
2023-03-11T12:08:45.900Z,0.50
2023-03-11T12:11:52.494Z,0.80
2023-03-11T12:14:44.710Z,0.90
2023-03-11T12:17:47.848Z,1.30
2023-03-11T12:20:42.305Z,1.30
2023-03-11T12:23:22.111Z,1.70
2023-03-11T12:26:03.929Z,1.20
2023-03-11T12:29:00.185Z,0.90
2023-03-11T12:31:31.417Z,1.20
2023-03-11T12:34:19.844Z,0.80
2023-03-11T12:36:49.363Z,1.10
2023-03-11T12:39:30.268Z,1.40
2023-03-11T12:42:18.833Z,1.50
2023-03-11T12:44:47.513Z,1.10
2023-03-11T12:47:19.694Z,0.70
2023-03-11T12:49:55.000Z,0.60
2023-03-11T12:52:28.292Z,0.70
2023-03-11T12:54:58.100Z,0.70
2023-03-11T12:57:38.379Z,0.90
2023-03-11T13:00:29.966Z,1.40
2023-03-11T13:03:15.383Z,0.80
2023-03-11T13:06:05.555Z,1.00
2023-03-11T13:08:35.790Z,1.00
2023-03-11T13:11:31.516Z,1.00
2023-03-11T13:14:23.067Z,0.80
2023-03-11T13:16:54.327Z,0.80
2023-03-11T13:19:27.585Z,1.10
2023-03-11T13:21:58.907Z,1.00
2023-03-11T13:24:34.995Z,1.20
2023-03-11T13:27:39.315Z,1.10
2023-03-11T13:30:19.435Z,1.10
2023-03-11T13:33:11.522Z,1.20
2023-03-11T13:36:01.663Z,1.40
2023-03-11T13:39:08.318Z,1.40
2023-03-11T13:41:43.817Z,1.10
2023-03-11T13:47:02.499Z,1.50
2023-03-11T13:49:53.849Z,1.20
2023-03-11T13:52:32.331Z,1.30
2023-03-11T13:55:21.479Z,1.10
2023-03-11T13:57:54.771Z,1.50
2023-03-11T14:00:29.763Z,1.70
2023-03-11T14:03:04.278Z,1.60
2023-03-11T14:05:58.730Z,1.90
2023-03-11T14:08:31.243Z,1.60
2023-03-11T14:11:03.576Z,1.10
2023-03-11T14:13:32.933Z,1.30
2023-03-11T14:16:29.169Z,1.30
2023-03-11T14:19:16.042Z,1.70
2023-03-11T14:21:45.461Z,1.40
2023-03-11T14:24:25.981Z,1.60
2023-03-11T14:26:55.591Z,1.40
2023-03-11T14:29:48.974Z,0.90
2023-03-11T14:32:33.571Z,1.70
2023-03-11T14:35:03.539Z,1.30
2023-03-11T14:37:36.396Z,1.30
2023-03-11T14:40:33.648Z,1.20
2023-03-11T14:43:06.579Z,1.10
2023-03-11T14:45:40.020Z,1.20
2023-03-11T14:48:41.471Z,1.10
2023-03-11T14:51:23.766Z,1.60
2023-03-11T14:54:17.074Z,0.90
2023-03-11T14:57:10.240Z,1.10
2023-03-11T14:59:38.788Z,1.00
2023-03-11T15:02:42.319Z,1.10
2023-03-11T15:05:32.433Z,1.30
2023-03-11T15:08:11.165Z,1.00
2023-03-11T15:11:01.411Z,1.20
2023-03-11T15:13:30.283Z,1.20
2023-03-11T15:15:59.309Z,1.00
2023-03-11T15:18:32.723Z,1.40
2023-03-11T15:21:29.695Z,1.30
2023-03-11T15:24:08.829Z,1.30
2023-03-11T15:26:37.721Z,1.30
2023-03-11T15:29:16.423Z,1.30
2023-03-11T15:31:45.952Z,1.10
2023-03-11T15:34:19.150Z,1.60
2023-03-11T15:36:49.150Z,1.40
2023-03-11T15:39:19.420Z,1.30
2023-03-11T15:41:56.949Z,1.50
2023-03-11T15:44:28.305Z,1.30
2023-03-11T15:46:56.033Z,1.40
2023-03-11T15:49:23.007Z,1.70
2023-03-11T15:51:49.882Z,1.60
2023-03-11T15:54:17.713Z,2.00
2023-03-11T15:56:44.978Z,1.90
2023-03-11T15:59:18.620Z,2.30
2023-03-11T16:01:55.240Z,1.60
2023-03-11T16:04:22.295Z,1.50
2023-03-11T16:06:56.694Z,2.20
2023-03-11T16:09:33.763Z,1.80
2023-03-11T16:15:37.597Z,1.30
2023-03-11T16:18:08.157Z,1.20
2023-03-11T16:20:47.625Z,1.40
2023-03-11T16:23:38.621Z,1.50
2023-03-11T16:26:12.224Z,1.40
2023-03-11T16:28:48.090Z,1.40
2023-03-11T16:31:17.178Z,2.20
2023-03-11T16:33:44.106Z,2.10
2023-03-11T16:36:11.107Z,3.50
2023-03-11T16:38:47.220Z,1.90
2023-03-11T16:41:20.519Z,2.50
2023-03-11T16:43:54.137Z,2.40
2023-03-11T16:46:21.211Z,1.90
2023-03-11T16:48:48.233Z,1.90
2023-03-11T16:51:15.075Z,2.10
2023-03-11T16:53:42.092Z,1.50
2023-03-11T16:56:09.002Z,1.60
2023-03-11T16:58:42.880Z,1.50
2023-03-11T17:01:13.716Z,2.10
2023-03-11T17:03:43.123Z,2.90
2023-03-11T17:06:10.167Z,2.30
2023-03-11T17:08:37.096Z,2.20
2023-03-11T17:11:05.856Z,3.40
2023-03-11T17:13:32.739Z,2.00
2023-03-11T17:16:01.078Z,2.10
2023-03-11T17:18:29.724Z,2.00
2023-03-11T17:23:38.460Z,2.30
2023-03-11T17:26:11.053Z,1.60
2023-03-11T17:28:40.755Z,1.70
2023-03-11T17:31:12.511Z,1.80
2023-03-11T17:33:44.714Z,1.30
2023-03-11T17:36:15.555Z,1.40
2023-03-11T17:38:44.422Z,1.90
2023-03-11T17:41:29.733Z,1.50
2023-03-11T17:43:56.646Z,2.00
2023-03-11T17:46:39.636Z,1.80
2023-03-11T17:49:07.732Z,1.90
2023-03-11T17:51:39.231Z,1.70
2023-03-11T17:54:06.429Z,2.80
2023-03-11T17:56:33.401Z,2.50
2023-03-11T17:59:02.508Z,1.80
2023-03-11T18:01:29.561Z,1.90
2023-03-11T18:03:56.936Z,1.80
2023-03-11T18:06:26.968Z,1.90
2023-03-11T18:08:53.972Z,1.80
2023-03-11T18:11:25.680Z,1.90
2023-03-11T18:13:53.785Z,2.30
2023-03-11T18:16:31.406Z,2.00
2023-03-11T18:18:58.324Z,2.50
2023-03-11T18:21:27.796Z,1.90
2023-03-11T18:23:57.601Z,1.90
2023-03-11T18:26:28.654Z,1.50
2023-03-11T18:28:57.177Z,2.20
2023-03-11T18:31:25.625Z,1.60
2023-03-11T18:36:31.307Z,1.70
2023-03-11T18:39:00.780Z,1.60
2023-03-11T18:41:31.933Z,2.10
2023-03-11T18:44:00.899Z,1.80
2023-03-11T18:46:37.146Z,1.80
2023-03-11T18:49:27.106Z,1.80
2023-03-11T18:51:56.648Z,1.80
2023-03-11T18:54:24.837Z,1.80
2023-03-11T18:57:19.325Z,1.80
2023-03-11T19:02:39.574Z,2.00
2023-03-11T19:05:21.423Z,2.20
2023-03-11T19:07:50.439Z,1.90
2023-03-11T19:10:26.003Z,1.80
2023-03-11T19:12:54.111Z,1.50
2023-03-11T19:15:22.680Z,2.00
2023-03-11T19:18:00.511Z,1.60
2023-03-11T19:20:42.950Z,1.60
2023-03-11T19:23:10.897Z,1.90
2023-03-11T19:25:38.782Z,1.80
2023-03-11T19:28:10.976Z,1.50
2023-03-11T19:30:37.832Z,1.60
2023-03-11T19:33:04.823Z,1.20
2023-03-11T19:35:45.511Z,2.30
2023-03-11T19:38:13.031Z,1.90
2023-03-11T19:40:44.669Z,2.50
2023-03-11T19:43:26.386Z,2.40
2023-03-11T19:46:28.697Z,2.10
2023-03-11T19:48:56.487Z,2.30
2023-03-11T19:51:28.477Z,2.50
2023-03-11T19:56:46.477Z,2.40
2023-03-11T19:59:15.530Z,2.20
2023-03-11T20:01:57.585Z,1.80
2023-03-11T20:04:26.955Z,1.90
2023-03-11T20:06:55.519Z,2.00
2023-03-11T20:09:22.638Z,2.10
2023-03-11T20:11:53.789Z,2.10
2023-03-11T20:14:30.398Z,2.50
2023-03-11T20:17:00.625Z,2.40
2023-03-11T20:19:34.525Z,2.40
2023-03-11T20:22:02.646Z,2.60
2023-03-11T20:24:33.143Z,2.00
2023-03-11T20:27:02.599Z,1.20
2023-03-11T20:32:06.745Z,1.30
2023-03-11T20:34:35.318Z,1.40
2023-03-11T20:37:09.839Z,1.70
2023-03-11T20:42:21.837Z,1.30
2023-03-11T20:44:53.193Z,1.70
2023-03-11T20:47:29.447Z,1.60
2023-03-11T20:49:58.017Z,1.60
2023-03-11T20:52:27.986Z,1.20
2023-03-11T20:54:59.242Z,1.70
2023-03-11T20:57:31.864Z,1.60
2023-03-11T21:00:03.075Z,1.40
2023-03-11T21:02:41.520Z,1.60
2023-03-11T21:05:14.283Z,1.70
2023-03-11T21:07:41.662Z,1.70
2023-03-11T21:10:25.412Z,1.50
2023-03-11T21:12:52.364Z,2.00
2023-03-11T21:15:21.893Z,1.70
2023-03-11T21:17:51.568Z,2.00
2023-03-11T21:20:24.332Z,1.80
2023-03-11T21:23:04.305Z,2.50
2023-03-11T21:25:31.717Z,2.30
2023-03-11T21:27:58.690Z,2.20
2023-03-11T21:30:29.739Z,2.20
2023-03-11T21:33:03.224Z,2.50
2023-03-11T21:35:30.445Z,2.00
2023-03-11T21:37:57.548Z,2.20
2023-03-11T21:40:44.459Z,2.00
2023-03-11T21:43:14.357Z,1.80
2023-03-11T21:45:45.645Z,2.10
2023-03-11T21:48:18.416Z,2.10
2023-03-11T21:50:51.395Z,2.30
2023-03-11T21:53:22.605Z,2.30
2023-03-11T21:55:54.572Z,1.90
2023-03-11T21:58:30.225Z,2.00
2023-03-11T22:01:00.524Z,2.00
2023-03-11T22:03:46.277Z,1.60
2023-03-11T22:06:14.052Z,1.90
2023-03-11T22:08:44.234Z,2.20
2023-03-11T22:11:31.118Z,1.40
2023-03-11T22:14:00.540Z,1.70
2023-03-11T22:16:28.037Z,1.80
2023-03-11T22:18:55.249Z,1.90
2023-03-11T22:21:37.290Z,2.10
2023-03-11T22:24:13.146Z,1.80
2023-03-11T22:26:41.052Z,1.90
2023-03-11T22:29:14.087Z,2.10
2023-03-11T22:31:44.068Z,1.80
2023-03-11T22:34:12.936Z,1.60
2023-03-11T22:37:03.478Z,1.50
2023-03-11T22:39:31.694Z,1.80
2023-03-11T22:42:10.749Z,2.40
2023-03-11T22:44:41.064Z,1.70
2023-03-11T22:47:38.215Z,1.60
2023-03-11T22:50:07.699Z,1.60
2023-03-11T22:52:36.997Z,1.60
2023-03-11T22:55:04.108Z,1.70
2023-03-11T22:57:40.603Z,1.70
2023-03-11T23:00:19.570Z,1.40
2023-03-11T23:02:57.396Z,1.60
2023-03-11T23:05:36.104Z,1.30
2023-03-11T23:08:03.312Z,1.50
2023-03-11T23:10:33.940Z,1.60
2023-03-11T23:13:12.629Z,1.60
2023-03-11T23:15:49.387Z,1.60
2023-03-11T23:18:25.837Z,1.80
2023-03-11T23:21:25.814Z,1.60
2023-03-11T23:24:00.385Z,1.80
2023-03-11T23:26:42.352Z,1.70
2023-03-11T23:29:14.861Z,1.70
2023-03-11T23:32:02.265Z,2.00
2023-03-11T23:34:34.031Z,2.10
2023-03-11T23:37:05.365Z,1.60
2023-03-11T23:39:37.739Z,1.40
2023-03-11T23:42:24.175Z,1.30
2023-03-11T23:44:55.277Z,1.80
2023-03-11T23:47:30.317Z,1.30
2023-03-11T23:50:06.592Z,1.40
2023-03-11T23:52:34.628Z,1.50
2023-03-11T23:55:09.733Z,1.50
2023-03-11T23:57:47.461Z,1.20
